Time;durP1;ratioP1;P1;durP2;ratioP2;P2;SDS_P1;SDS_P2;PMS_P1;PMS_P2;Temp;Humidity;BMP_temperature;BMP_pressure;BME280_temperature;BME280_humidity;BME280_pressure;Samples;Min_cycle;Max_cycle;Signal;HPM_P1;HPM_P2
2023/06/05 00:00:44;;;;;;;9.20;5.20;;;9.70;99.90;;;;;;5022217;28;20064;-81
2023/06/05 00:03:10;;;;;;;6.00;4.55;;;9.70;99.90;;;;;;5006732;28;20049;-80
2023/06/05 00:05:36;;;;;;;7.78;4.93;;;9.60;99.90;;;;;;5021263;28;20538;-82
2023/06/05 00:08:01;;;;;;;11.48;4.90;;;9.60;99.90;;;;;;5031732;28;20083;-82
2023/06/05 00:10:27;;;;;;;7.57;4.63;;;9.60;99.90;;;;;;5030566;28;20088;-80
2023/06/05 00:12:53;;;;;;;5.93;4.78;;;9.50;99.90;;;;;;5025990;28;20076;-82
2023/06/05 00:15:18;;;;;;;6.40;4.82;;;9.50;99.90;;;;;;5026252;28;20495;-81
2023/06/05 00:17:45;;;;;;;8.57;4.97;;;9.40;99.90;;;;;;5031266;28;20068;-81
2023/06/05 00:20:11;;;;;;;7.90;4.80;;;9.40;99.90;;;;;;5030116;28;20420;-81
2023/06/05 00:22:38;;;;;;;6.78;4.85;;;9.40;99.90;;;;;;5031750;28;20050;-82
2023/06/05 00:25:04;;;;;;;5.53;4.85;;;9.40;99.90;;;;;;5027123;28;20037;-82
2023/06/05 00:27:31;;;;;;;9.00;5.70;;;9.30;99.90;;;;;;5025833;28;20393;-82
2023/06/05 00:29:56;;;;;;;12.80;6.03;;;9.30;99.90;;;;;;5025254;28;20063;-82
2023/06/05 00:32:22;;;;;;;6.30;5.65;;;9.30;99.90;;;;;;5030911;28;20033;-81
2023/06/05 00:34:49;;;;;;;11.52;5.72;;;9.30;99.90;;;;;;5030703;28;20086;-80
2023/06/05 00:37:15;;;;;;;8.75;5.00;;;9.20;99.90;;;;;;5028928;28;20045;-80
2023/06/05 00:39:41;;;;;;;9.18;5.75;;;9.30;99.90;;;;;;5031300;28;20520;-81
2023/06/05 00:42:08;;;;;;;5.57;4.90;;;9.20;99.90;;;;;;5020941;28;20427;-81
2023/06/05 00:44:34;;;;;;;6.75;5.78;;;9.20;99.90;;;;;;5029625;28;20496;-81
2023/06/05 00:47:01;;;;;;;8.13;5.18;;;9.10;99.90;;;;;;5029993;28;20095;-81
2023/06/05 00:49:27;;;;;;;8.07;5.20;;;9.10;99.90;;;;;;5032288;28;20407;-81
2023/06/05 00:51:52;;;;;;;7.07;4.70;;;9.10;99.90;;;;;;5029235;28;20136;-81
2023/06/05 00:54:20;;;;;;;9.38;6.10;;;9.10;99.90;;;;;;5025953;28;20053;-81
2023/06/05 00:56:47;;;;;;;8.95;5.72;;;9.00;99.90;;;;;;5027796;28;20038;-81
2023/06/05 00:59:13;;;;;;;9.57;5.63;;;9.00;99.90;;;;;;5028312;28;20141;-81
2023/06/05 01:01:40;;;;;;;8.50;7.00;;;8.90;99.90;;;;;;5020687;28;20068;-81
2023/06/05 01:04:06;;;;;;;10.88;6.75;;;8.90;99.90;;;;;;5028566;28;20041;-81
2023/06/05 01:06:33;;;;;;;9.05;6.53;;;9.00;99.90;;;;;;5027579;28;20051;-81
2023/06/05 01:09:00;;;;;;;9.98;6.95;;;8.90;99.90;;;;;;5028961;28;20041;-81
2023/06/05 01:12:06;;;;;;;10.05;6.90;;;8.90;99.90;;;;;;5028205;28;20057;-81
2023/06/05 01:14:35;;;;;;;7.55;6.45;;;8.90;99.90;;;;;;5012259;28;20041;-81
2023/06/05 01:17:04;;;;;;;9.90;6.80;;;8.90;99.90;;;;;;5028877;28;20107;-81
2023/06/05 01:19:32;;;;;;;9.35;5.90;;;8.90;99.90;;;;;;5029065;28;20064;-81
2023/06/05 01:21:59;;;;;;;8.40;6.38;;;8.90;99.90;;;;;;5026502;28;20057;-80
2023/06/05 01:24:27;;;;;;;7.65;6.38;;;8.90;99.90;;;;;;5023079;28;20119;-82
2023/06/05 01:27:00;;;;;;;8.65;6.18;;;8.90;99.90;;;;;;5022969;28;20053;-81
2023/06/05 01:29:35;;;;;;;13.05;6.35;;;8.90;99.90;;;;;;5026217;28;20404;-80
2023/06/05 01:32:06;;;;;;;10.38;6.15;;;8.90;99.90;;;;;;5026429;28;20045;-81
2023/06/05 01:34:33;;;;;;;8.43;6.35;;;8.90;99.90;;;;;;5025438;28;20045;-81
2023/06/05 01:37:01;;;;;;;11.43;7.18;;;8.90;99.90;;;;;;5023677;28;20057;-81
2023/06/05 01:39:27;;;;;;;7.18;5.95;;;8.90;99.90;;;;;;5038487;28;20049;-81
2023/06/05 01:41:54;;;;;;;8.30;6.35;;;8.80;99.90;;;;;;5028349;28;21205;-81
2023/06/05 01:44:21;;;;;;;7.60;6.90;;;8.90;99.90;;;;;;5026072;28;20058;-81
2023/06/05 01:46:47;;;;;;;6.75;6.00;;;8.80;99.90;;;;;;5014061;28;20070;-81
2023/06/05 01:49:13;;;;;;;8.57;6.90;;;8.80;99.90;;;;;;5019600;28;20045;-79
2023/06/05 01:51:38;;;;;;;6.80;6.20;;;8.70;99.90;;;;;;5012161;28;20044;-81
2023/06/05 01:54:05;;;;;;;7.80;5.03;;;8.70;99.90;;;;;;5024744;28;20166;-81
2023/06/05 01:56:32;;;;;;;8.10;5.65;;;8.80;99.90;;;;;;5025033;28;20045;-81
2023/06/05 01:58:58;;;;;;;8.45;5.60;;;8.60;99.90;;;;;;5028857;28;20052;-81
2023/06/05 02:01:23;;;;;;;6.28;5.55;;;9.00;99.90;;;;;;5027233;28;20037;-81
2023/06/05 02:03:49;;;;;;;9.13;6.32;;;8.50;99.90;;;;;;5027403;28;20045;-81
2023/06/05 02:06:16;;;;;;;11.88;6.18;;;8.50;99.90;;;;;;5023928;28;20129;-80
2023/06/05 02:08:42;;;;;;;7.63;5.80;;;8.50;99.90;;;;;;5028366;28;20132;-81
2023/06/05 02:11:10;;;;;;;10.73;6.75;;;8.50;99.90;;;;;;5017233;28;20037;-81
2023/06/05 02:13:40;;;;;;;9.80;6.15;;;8.40;99.90;;;;;;5029411;28;20076;-81
2023/06/05 02:16:08;;;;;;;8.63;6.78;;;8.40;99.90;;;;;;5033375;28;20037;-81
2023/06/05 02:18:36;;;;;;;8.32;6.30;;;8.30;99.90;;;;;;5030622;28;20041;-81
2023/06/05 02:21:03;;;;;;;8.80;6.05;;;8.30;99.90;;;;;;5032582;28;20055;-81
2023/06/05 02:23:29;;;;;;;7.22;6.25;;;8.40;99.90;;;;;;5027746;28;20041;-81
2023/06/05 02:25:55;;;;;;;7.28;6.43;;;8.30;99.90;;;;;;5027271;28;20668;-82
2023/06/05 02:28:21;;;;;;;7.50;6.07;;;8.30;99.90;;;;;;5047977;28;20045;-81
2023/06/05 02:30:47;;;;;;;8.20;6.35;;;8.30;99.90;;;;;;5029511;28;20041;-81
2023/06/05 02:33:14;;;;;;;8.75;5.90;;;8.30;99.90;;;;;;5032060;28;20048;-81
2023/06/05 02:35:40;;;;;;;8.38;7.10;;;8.30;99.90;;;;;;5030497;28;20045;-80
2023/06/05 02:38:07;;;;;;;9.30;8.23;;;8.30;99.90;;;;;;5030152;28;20077;-81
2023/06/05 02:40:33;;;;;;;7.63;6.82;;;8.30;99.90;;;;;;5031488;28;20465;-80
2023/06/05 02:42:58;;;;;;;9.23;8.43;;;8.20;99.90;;;;;;5031164;28;20045;-81
2023/06/05 02:45:24;;;;;;;9.82;8.82;;;8.10;99.90;;;;;;5032564;28;20037;-81
2023/06/05 02:47:50;;;;;;;9.30;8.40;;;8.10;99.90;;;;;;5033265;28;20049;-80
2023/06/05 02:50:15;;;;;;;5.95;5.35;;;8.10;99.90;;;;;;5030306;28;20179;-82
2023/06/05 02:52:41;;;;;;;4.78;4.38;;;8.00;99.90;;;;;;5030293;28;20044;-81
2023/06/05 02:55:07;;;;;;;4.97;4.57;;;8.00;99.90;;;;;;5011536;28;20037;-81
2023/06/05 02:57:40;;;;;;;5.50;5.00;;;8.00;99.90;;;;;;5029732;28;20045;-81
2023/06/05 03:00:08;;;;;;;7.32;6.55;;;7.90;99.90;;;;;;5030226;28;20384;-79
2023/06/05 03:02:36;;;;;;;7.45;5.75;;;7.90;99.90;;;;;;5027493;28;20160;-81
2023/06/05 03:05:03;;;;;;;6.15;5.65;;;8.00;99.90;;;;;;5031439;28;20051;-80
2023/06/05 03:07:29;;;;;;;7.78;6.97;;;8.00;99.90;;;;;;5028968;28;20046;-80
2023/06/05 03:09:55;;;;;;;6.80;5.93;;;8.00;99.90;;;;;;5031187;28;20030;-81
2023/06/05 03:12:21;;;;;;;7.72;6.53;;;8.10;99.90;;;;;;5032756;28;20037;-81
2023/06/05 03:14:46;;;;;;;7.28;6.25;;;8.10;99.90;;;;;;5029194;28;20060;-81
2023/06/05 03:17:12;;;;;;;10.98;6.45;;;8.20;99.90;;;;;;5030092;28;20045;-81
2023/06/05 03:19:37;;;;;;;6.68;5.90;;;8.20;99.90;;;;;;5029939;28;20045;-81
2023/06/05 03:22:04;;;;;;;8.10;6.60;;;8.20;99.90;;;;;;5027425;28;20045;-81
2023/06/05 03:24:29;;;;;;;7.40;6.28;;;8.20;99.90;;;;;;5028584;28;20506;-81
2023/06/05 03:26:55;;;;;;;8.48;7.10;;;8.20;99.90;;;;;;5032162;28;20055;-81
2023/06/05 03:29:20;;;;;;;10.45;7.60;;;8.20;99.90;;;;;;5032224;28;20040;-81
2023/06/05 03:31:46;;;;;;;8.90;6.78;;;8.20;99.90;;;;;;5029842;28;20049;-81
2023/06/05 03:34:11;;;;;;;7.10;6.50;;;8.30;99.90;;;;;;5029203;28;20073;-81
2023/06/05 03:36:39;;;;;;;8.00;7.20;;;8.20;99.90;;;;;;5030672;28;20119;-81
2023/06/05 03:39:05;;;;;;;9.20;7.30;;;8.30;99.90;;;;;;5029767;28;20045;-81
2023/06/05 03:41:31;;;;;;;9.05;7.43;;;8.30;99.90;;;;;;5027935;28;20077;-82
2023/06/05 03:43:59;;;;;;;8.50;6.90;;;8.30;99.90;;;;;;5004518;28;20128;-80
2023/06/05 03:46:25;;;;;;;9.63;6.90;;;8.30;99.90;;;;;;5015565;28;20065;-82
2023/06/05 03:48:55;;;;;;;11.90;7.55;;;8.30;99.90;;;;;;5028173;28;20796;-81
2023/06/05 03:51:21;;;;;;;9.75;7.70;;;8.40;99.90;;;;;;5031900;28;20048;-81
2023/06/05 03:53:54;;;;;;;13.55;7.50;;;8.50;99.90;;;;;;5024898;28;20048;-80
2023/06/05 03:56:21;;;;;;;7.68;6.88;;;8.50;99.90;;;;;;5028004;28;20724;-81
2023/06/05 03:58:48;;;;;;;7.40;6.45;;;8.60;99.90;;;;;;5020794;28;20049;-81
2023/06/05 04:01:14;;;;;;;9.02;6.95;;;8.70;99.90;;;;;;5024403;28;20041;-81
2023/06/05 04:03:40;;;;;;;8.38;6.00;;;8.80;99.90;;;;;;5015699;28;22532;-81
2023/06/05 04:06:05;;;;;;;8.95;6.75;;;8.80;99.90;;;;;;5024126;28;20037;-81
2023/06/05 04:08:32;;;;;;;10.07;6.25;;;8.90;99.90;;;;;;5014556;28;20026;-80
2023/06/05 04:10:58;;;;;;;12.05;6.03;;;9.00;99.90;;;;;;5026113;28;20033;-81
2023/06/05 04:13:24;;;;;;;10.43;6.63;;;9.20;99.90;;;;;;5021417;28;20172;-81
2023/06/05 04:15:50;;;;;;;9.95;6.82;;;9.30;99.90;;;;;;5024683;28;20065;-81
2023/06/05 04:18:16;;;;;;;9.30;6.00;;;9.50;99.90;;;;;;5026950;28;20123;-82
2023/06/05 04:20:41;;;;;;;9.38;5.85;;;9.80;99.90;;;;;;5024584;28;20056;-82
2023/06/05 04:23:07;;;;;;;13.75;5.68;;;10.40;99.90;;;;;;5021255;28;20060;-81
2023/06/05 04:25:32;;;;;;;5.90;4.75;;;11.20;99.90;;;;;;5027285;28;20041;-82
2023/06/05 04:27:58;;;;;;;8.48;5.93;;;12.20;99.90;;;;;;5029675;28;20065;-82
2023/06/05 04:30:24;;;;;;;5.93;4.72;;;13.10;99.90;;;;;;5026784;28;20041;-83
2023/06/05 04:32:54;;;;;;;12.40;4.13;;;13.90;99.90;;;;;;5026232;28;20059;-83
2023/06/05 04:35:21;;;;;;;4.85;4.07;;;14.50;99.90;;;;;;5005130;28;20087;-82
2023/06/05 04:37:47;;;;;;;4.50;3.45;;;14.90;99.90;;;;;;5015656;28;20034;-81
2023/06/05 04:40:14;;;;;;;7.00;3.83;;;15.40;99.90;;;;;;5024118;28;20132;-83
2023/06/05 04:42:40;;;;;;;3.53;3.15;;;15.80;99.90;;;;;;5008701;28;20554;-82
2023/06/05 04:45:10;;;;;;;6.10;3.55;;;16.20;99.90;;;;;;5012181;28;20034;-81
2023/06/05 04:47:36;;;;;;;4.05;2.95;;;16.50;99.90;;;;;;5021381;28;20155;-82
2023/06/05 04:50:04;;;;;;;4.90;2.88;;;17.10;99.90;;;;;;5028040;28;20041;-83
2023/06/05 04:52:32;;;;;;;4.55;2.90;;;17.60;99.90;;;;;;5025776;28;20041;-84
2023/06/05 04:55:01;;;;;;;6.20;2.55;;;17.70;99.90;;;;;;5025602;28;20384;-81
2023/06/05 04:57:27;;;;;;;3.53;2.45;;;18.10;99.90;;;;;;5024713;28;20053;-82
2023/06/05 04:59:53;;;;;;;2.78;2.47;;;18.60;99.90;;;;;;5039403;28;20175;-82
2023/06/05 05:02:19;;;;;;;2.80;2.17;;;19.10;99.90;;;;;;5015544;28;20041;-81
2023/06/05 05:04:45;;;;;;;3.95;2.78;;;19.10;99.90;;;;;;5026470;28;20036;-81
2023/06/05 05:07:15;;;;;;;3.60;2.67;;;19.30;99.90;;;;;;5031004;28;20045;-81
2023/06/05 05:09:41;;;;;;;4.72;2.60;;;19.10;99.90;;;;;;5030496;28;20076;-82
2023/06/05 05:12:07;;;;;;;4.00;2.47;;;18.80;99.90;;;;;;5030183;28;20041;-82
2023/06/05 05:14:32;;;;;;;2.92;2.65;;;18.30;99.90;;;;;;5026323;28;20183;-82
2023/06/05 05:16:58;;;;;;;4.68;2.78;;;18.20;99.90;;;;;;5024869;28;20161;-82
2023/06/05 05:19:24;;;;;;;4.10;2.50;;;18.60;99.90;;;;;;5028161;28;20053;-81
2023/06/05 05:21:50;;;;;;;4.10;2.30;;;19.40;99.90;;;;;;5026501;28;20037;-82
2023/06/05 05:24:16;;;;;;;4.03;2.55;;;20.20;99.90;;;;;;5028021;28;20082;-82
2023/06/05 05:26:41;;;;;;;2.63;2.28;;;21.00;99.90;;;;;;5028446;28;20037;-81
2023/06/05 05:29:07;;;;;;;4.20;2.78;;;21.10;99.90;;;;;;5023180;28;20518;-81
2023/06/05 05:31:34;;;;;;;3.40;2.33;;;20.80;99.90;;;;;;5014908;28;20037;-81
2023/06/05 05:33:59;;;;;;;4.07;2.28;;;20.20;99.90;;;;;;5025577;28;20075;-82
2023/06/05 05:36:26;;;;;;;4.10;2.60;;;19.70;99.90;;;;;;5019029;28;20037;-80
2023/06/05 05:38:52;;;;;;;15.75;3.92;;;19.20;99.90;;;;;;5023537;28;20038;-82
2023/06/05 05:41:18;;;;;;;7.30;2.83;;;18.90;99.90;;;;;;5028708;28;20049;-81
2023/06/05 05:43:44;;;;;;;3.78;2.80;;;18.60;99.90;;;;;;5030491;28;20057;-82
2023/06/05 05:46:10;;;;;;;3.40;2.72;;;18.40;99.90;;;;;;5029289;28;20037;-82
2023/06/05 05:48:36;;;;;;;8.32;3.00;;;18.40;99.90;;;;;;5034854;28;20531;-82
2023/06/05 05:51:02;;;;;;;3.92;2.20;;;18.10;99.90;;;;;;5027549;28;20124;-82
2023/06/05 05:53:27;;;;;;;3.47;2.50;;;18.00;99.90;;;;;;5026762;28;20125;-82
2023/06/05 05:55:53;;;;;;;3.63;2.42;;;18.10;99.90;;;;;;5033098;28;20045;-82
2023/06/05 05:58:19;;;;;;;5.95;2.45;;;18.20;99.90;;;;;;5034909;28;20455;-82
2023/06/05 06:00:45;;;;;;;3.60;2.17;;;18.20;99.90;;;;;;5025053;28;20077;-79
2023/06/05 06:03:11;;;;;;;3.13;2.75;;;18.30;99.90;;;;;;5039319;28;20042;-81
2023/06/05 06:05:37;;;;;;;3.25;1.90;;;18.30;99.90;;;;;;5032933;28;20091;-79
2023/06/05 06:08:03;;;;;;;2.30;1.95;;;18.40;99.90;;;;;;5034077;28;20033;-81
2023/06/05 06:10:30;;;;;;;3.92;2.30;;;18.40;99.90;;;;;;5035178;28;20034;-81
2023/06/05 06:12:56;;;;;;;2.53;1.90;;;18.50;99.90;;;;;;5034689;28;20061;-81
2023/06/05 06:15:22;;;;;;;4.63;2.03;;;18.60;99.90;;;;;;5031746;28;20037;-82
2023/06/05 06:17:48;;;;;;;1.63;1.40;;;18.70;99.90;;;;;;5027370;28;20049;-82
2023/06/05 06:20:14;;;;;;;2.97;1.73;;;18.80;99.90;;;;;;5025016;28;20618;-82
2023/06/05 06:22:40;;;;;;;2.10;1.90;;;18.70;99.90;;;;;;5025915;28;20079;-80
2023/06/05 06:25:07;;;;;;;4.00;2.53;;;18.50;99.90;;;;;;5028438;28;20047;-81
2023/06/05 06:27:33;;;;;;;2.78;2.03;;;18.20;99.90;;;;;;5030444;28;20049;-82
2023/06/05 06:29:58;;;;;;;7.80;2.33;;;18.00;99.90;;;;;;5033853;28;20040;-82
2023/06/05 06:32:25;;;;;;;3.42;1.98;;;17.60;99.90;;;;;;5031833;28;20132;-81
2023/06/05 06:34:53;;;;;;;2.75;2.30;;;17.40;99.90;;;;;;5023549;28;20049;-82
2023/06/05 06:37:20;;;;;;;2.78;1.90;;;17.20;99.90;;;;;;5025119;28;20045;-82
2023/06/05 06:39:46;;;;;;;3.15;1.88;;;17.10;99.90;;;;;;5032103;28;20045;-81
2023/06/05 06:42:15;;;;;;;3.40;1.92;;;17.00;99.90;;;;;;5028445;28;20068;-82
2023/06/05 06:44:40;;;;;;;4.32;2.00;;;17.00;99.90;;;;;;5022836;28;20555;-82
2023/06/05 06:47:07;;;;;;;3.17;2.22;;;16.90;99.90;;;;;;5033276;28;20041;-81
2023/06/05 06:49:34;;;;;;;3.33;2.30;;;16.80;99.90;;;;;;5035716;28;20057;-81
2023/06/05 06:52:00;;;;;;;4.05;2.45;;;16.80;99.90;;;;;;5034576;28;20049;-82
2023/06/05 06:54:28;;;;;;;2.05;1.92;;;16.90;99.90;;;;;;5031454;28;20133;-82
2023/06/05 06:56:56;;;;;;;2.15;1.77;;;17.00;99.90;;;;;;5033484;28;20041;-82
2023/06/05 06:59:22;;;;;;;2.83;2.53;;;17.00;99.90;;;;;;5031129;28;20613;-82
2023/06/05 07:02:13;;;;;;;3.67;2.28;;;16.90;99.90;;;;;;5029685;28;20125;-82
2023/06/05 07:04:41;;;;;;;2.63;2.42;;;16.80;99.90;;;;;;5031718;28;20045;-81
2023/06/05 07:07:17;;;;;;;2.33;1.80;;;16.90;99.90;;;;;;5028944;28;20037;-81
2023/06/05 07:09:45;;;;;;;3.92;2.20;;;17.20;99.90;;;;;;5027600;28;20045;-81
2023/06/05 07:12:13;;;;;;;2.10;1.70;;;17.60;99.90;;;;;;5041497;28;20046;-82
2023/06/05 07:14:39;;;;;;;2.55;2.35;;;18.00;99.90;;;;;;5031228;28;20099;-81
2023/06/05 07:17:05;;;;;;;4.13;1.95;;;18.30;99.90;;;;;;5029800;28;20048;-81
2023/06/05 07:19:32;;;;;;;4.35;1.98;;;18.40;99.90;;;;;;5030906;28;20049;-82
2023/06/05 07:21:59;;;;;;;3.55;2.13;;;18.20;99.90;;;;;;5032026;28;20049;-82
2023/06/05 07:24:26;;;;;;;4.95;2.20;;;18.40;99.90;;;;;;5031518;28;20037;-82
2023/06/05 07:26:55;;;;;;;3.47;2.20;;;18.60;99.90;;;;;;5031454;28;20029;-82
2023/06/05 07:29:21;;;;;;;6.07;1.90;;;18.50;99.90;;;;;;5028535;28;20052;-82
2023/06/05 07:31:48;;;;;;;3.50;1.83;;;18.20;99.90;;;;;;5030011;28;20128;-82
2023/06/05 07:34:14;;;;;;;2.63;2.42;;;18.10;99.90;;;;;;5030522;28;20060;-82
2023/06/05 07:36:40;;;;;;;3.50;2.00;;;18.00;99.90;;;;;;5028673;28;20053;-82
2023/06/05 07:39:06;;;;;;;4.05;2.20;;;18.20;99.90;;;;;;5030154;28;20115;-81
2023/06/05 07:41:31;;;;;;;4.20;2.42;;;18.50;99.90;;;;;;5028174;28;20072;-82
2023/06/05 07:43:57;;;;;;;3.17;2.20;;;18.70;99.90;;;;;;5026651;28;20046;-81
2023/06/05 07:46:23;;;;;;;3.67;2.20;;;18.90;99.90;;;;;;5028747;28;20112;-82
2023/06/05 07:48:48;;;;;;;3.03;2.20;;;19.00;99.90;;;;;;5029966;28;20033;-82
2023/06/05 07:51:14;;;;;;;7.32;2.50;;;18.40;99.90;;;;;;5030280;28;20551;-82
2023/06/05 07:53:41;;;;;;;4.93;2.88;;;18.70;99.90;;;;;;5028045;28;20480;-82
2023/06/05 07:56:07;;;;;;;3.88;2.17;;;18.80;99.90;;;;;;5020674;28;20056;-83
2023/06/05 07:58:34;;;;;;;4.20;2.58;;;18.70;99.90;;;;;;4992239;28;20053;-78
2023/06/05 08:01:00;;;;;;;2.97;2.13;;;18.90;99.90;;;;;;5030829;28;20444;-82
2023/06/05 08:03:26;;;;;;;3.90;2.13;;;18.80;99.90;;;;;;5032389;28;20045;-81
2023/06/05 08:05:51;;;;;;;5.43;2.22;;;18.90;99.90;;;;;;5034018;28;20531;-81
2023/06/05 08:08:17;;;;;;;2.47;2.15;;;18.60;99.90;;;;;;5033259;28;20201;-82
2023/06/05 08:10:43;;;;;;;2.95;2.30;;;18.70;99.90;;;;;;5033380;28;20396;-81
2023/06/05 08:13:09;;;;;;;3.97;1.80;;;18.50;99.90;;;;;;5030002;28;20044;-81
2023/06/05 08:15:35;;;;;;;3.83;1.92;;;18.60;99.90;;;;;;5029938;28;20063;-81
2023/06/05 08:18:01;;;;;;;2.60;1.75;;;18.80;99.90;;;;;;5031950;28;20049;-81
2023/06/05 08:20:26;;;;;;;4.50;1.77;;;18.90;99.90;;;;;;5030396;28;20140;-82
2023/06/05 08:22:52;;;;;;;2.38;2.05;;;19.00;99.90;;;;;;5031946;28;20044;-82
2023/06/05 08:25:18;;;;;;;2.20;2.00;;;19.10;99.90;;;;;;5034476;28;20032;-81
2023/06/05 08:27:43;;;;;;;5.75;2.20;;;19.40;99.90;;;;;;5034448;28;20451;-81
2023/06/05 08:30:10;;;;;;;5.13;2.60;;;19.60;99.90;;;;;;5028597;28;20063;-82
2023/06/05 08:32:36;;;;;;;6.35;2.00;;;19.80;99.90;;;;;;5024950;28;20439;-82
2023/06/05 08:35:02;;;;;;;1.98;1.58;;;19.80;99.90;;;;;;5035436;28;20076;-82
2023/06/05 08:37:28;;;;;;;4.07;2.05;;;19.90;99.90;;;;;;5029671;28;20388;-80
2023/06/05 08:39:58;;;;;;;2.13;1.92;;;19.80;99.90;;;;;;5025973;28;20080;-81
2023/06/05 08:42:28;;;;;;;2.47;1.70;;;19.80;99.90;;;;;;5025797;28;20474;-82
2023/06/05 08:44:54;;;;;;;3.30;2.40;;;19.80;99.90;;;;;;5035138;28;20033;-81
2023/06/05 08:47:22;;;;;;;3.13;2.67;;;19.90;99.90;;;;;;5033028;28;20041;-81
2023/06/05 08:49:52;;;;;;;3.72;2.50;;;20.00;99.90;;;;;;5029562;28;20048;-81
2023/06/05 08:52:21;;;;;;;5.00;2.05;;;19.90;99.90;;;;;;5030894;28;20041;-81
2023/06/05 08:54:46;;;;;;;3.00;1.90;;;19.90;99.90;;;;;;5030079;28;20128;-80
2023/06/05 08:57:12;;;;;;;6.05;2.40;;;20.00;99.90;;;;;;5022807;28;20108;-82
2023/06/05 08:59:38;;;;;;;8.98;1.88;;;20.10;99.90;;;;;;5030986;28;20146;-82
2023/06/05 09:02:04;;;;;;;2.35;2.08;;;20.00;99.90;;;;;;5032315;28;20043;-80
2023/06/05 09:04:30;;;;;;;5.40;2.30;;;19.90;99.90;;;;;;5031847;28;20126;-81
2023/06/05 09:06:59;;;;;;;6.47;2.00;;;20.00;99.90;;;;;;5033655;28;20075;-82
2023/06/05 09:09:25;;;;;;;7.57;1.83;;;20.20;99.90;;;;;;5024586;28;20139;-81
2023/06/05 09:12:05;;;;;;;4.45;2.20;;;20.50;99.90;;;;;;5015244;28;20060;-79
2023/06/05 09:14:31;;;;;;;3.45;2.22;;;20.60;99.90;;;;;;5026783;28;20046;-82
2023/06/05 09:16:57;;;;;;;2.33;2.13;;;20.60;99.90;;;;;;5023803;28;20045;-82
2023/06/05 09:19:27;;;;;;;4.63;2.10;;;20.30;99.90;;;;;;5026951;28;20037;-82
2023/06/05 09:21:54;;;;;;;4.53;2.85;;;20.40;99.90;;;;;;5027288;28;20099;-82
2023/06/05 09:24:21;;;;;;;3.30;1.83;;;20.30;99.90;;;;;;5035628;28;20067;-82
2023/06/05 09:26:57;;;;;;;5.60;1.90;;;20.10;99.90;;;;;;5034966;28;20491;-82
2023/06/05 09:29:23;;;;;;;2.60;1.92;;;20.20;99.90;;;;;;5035260;28;20080;-82
2023/06/05 09:31:51;;;;;;;3.38;2.22;;;20.30;99.90;;;;;;5031561;28;20050;-82
2023/06/05 09:34:25;;;;;;;3.22;1.83;;;20.30;99.90;;;;;;5031744;28;20676;-81
2023/06/05 09:36:51;;;;;;;2.00;1.80;;;20.20;99.90;;;;;;5032605;28;20049;-80
2023/06/05 09:39:19;;;;;;;3.15;1.70;;;20.20;99.90;;;;;;5031980;28;20042;-82
2023/06/05 09:41:47;;;;;;;6.72;2.05;;;20.30;99.90;;;;;;5032444;28;20041;-81
2023/06/05 09:44:12;;;;;;;2.97;2.20;;;19.90;99.90;;;;;;5029741;28;20558;-80
2023/06/05 09:46:52;;;;;;;3.05;1.88;;;20.30;99.90;;;;;;5028775;28;20041;-81
2023/06/05 09:49:18;;;;;;;5.43;1.65;;;20.40;99.90;;;;;;5035276;28;20551;-81
2023/06/05 09:51:45;;;;;;;4.75;2.00;;;20.70;99.90;;;;;;5033941;28;20125;-81
2023/06/05 09:54:12;;;;;;;2.55;2.30;;;20.90;99.90;;;;;;5032348;28;20045;-80
2023/06/05 09:56:41;;;;;;;3.90;1.90;;;21.00;99.90;;;;;;5033831;28;20034;-82
2023/06/05 09:59:09;;;;;;;7.20;2.40;;;20.90;99.90;;;;;;5032858;28;20041;-82
2023/06/05 10:01:41;;;;;;;5.22;2.25;;;20.90;99.90;;;;;;5042210;28;20136;-82
2023/06/05 10:04:10;;;;;;;5.90;3.17;;;20.80;99.90;;;;;;5031050;28;20037;-82
2023/06/05 10:06:36;;;;;;;4.85;2.20;;;20.90;99.90;;;;;;5026857;28;20052;-81
2023/06/05 10:09:03;;;;;;;4.75;1.50;;;21.00;99.90;;;;;;5031860;28;20510;-80
2023/06/05 10:11:29;;;;;;;5.60;2.67;;;21.20;99.90;;;;;;5029509;28;20091;-81
2023/06/05 10:13:59;;;;;;;9.30;3.35;;;21.30;99.90;;;;;;5028523;28;20049;-82
2023/06/05 10:16:27;;;;;;;5.45;2.03;;;21.40;99.90;;;;;;5022118;28;20053;-80
2023/06/05 10:18:56;;;;;;;5.10;2.47;;;21.30;99.90;;;;;;5026828;28;20081;-82
2023/06/05 10:25:32;;;;;;;3.00;2.33;;;21.20;99.90;;;;;;4959576;28;20983;-82
2023/06/05 10:28:29;;;;;;;2.65;1.92;;;21.20;99.90;;;;;;4985894;28;20042;-81
2023/06/05 10:31:18;;;;;;;3.08;1.50;;;21.30;99.90;;;;;;5026493;28;20088;-79
2023/06/05 10:34:13;;;;;;;5.07;2.75;;;21.40;99.90;;;;;;5031964;28;20041;-83
2023/06/05 10:37:05;;;;;;;2.47;2.28;;;21.30;99.90;;;;;;5033977;28;20427;-82
2023/06/05 10:39:34;;;;;;;5.38;2.65;;;21.50;99.90;;;;;;5027959;28;20064;-81
2023/06/05 10:42:00;;;;;;;2.42;2.05;;;21.00;99.90;;;;;;5018026;28;20041;-82
2023/06/05 10:44:42;;;;;;;2.90;2.60;;;21.30;99.90;;;;;;5029093;28;20041;-82
2023/06/05 10:47:33;;;;;;;3.65;2.20;;;21.40;99.90;;;;;;5025625;28;20136;-78
2023/06/05 10:50:17;;;;;;;3.45;2.65;;;21.40;99.90;;;;;;5028048;28;20040;-79
2023/06/05 10:52:43;;;;;;;4.72;2.10;;;21.30;99.90;;;;;;5031754;28;20052;-81
2023/06/05 10:55:12;;;;;;;5.78;2.03;;;21.40;99.90;;;;;;5030534;28;20038;-82
2023/06/05 10:58:09;;;;;;;7.30;2.00;;;21.50;99.90;;;;;;5028715;28;20430;-82
2023/06/05 11:00:37;;;;;;;3.47;2.13;;;21.50;99.90;;;;;;5022890;28;20128;-82
2023/06/05 11:03:05;;;;;;;8.68;2.05;;;21.70;99.90;;;;;;5029158;28;20071;-83
2023/06/05 11:05:31;;;;;;;11.68;2.90;;;21.80;99.90;;;;;;5041576;28;20050;-82
2023/06/05 11:08:14;;;;;;;6.68;2.55;;;21.70;99.90;;;;;;5025132;28;20040;-83
2023/06/05 11:11:09;;;;;;;7.32;2.85;;;21.70;99.90;;;;;;5019067;28;20064;-82
2023/06/05 11:13:56;;;;;;;2.90;2.63;;;21.80;99.90;;;;;;5019277;28;20045;-82
2023/06/05 11:16:40;;;;;;;7.90;3.42;;;22.00;99.90;;;;;;5024133;28;20045;-79
2023/06/05 11:19:15;;;;;;;6.63;2.90;;;22.00;99.90;;;;;;5028728;28;20038;-82
2023/06/05 11:22:03;;;;;;;6.28;3.47;;;22.00;99.40;;;;;;5042220;28;20049;-81
2023/06/05 11:24:29;;;;;;;3.55;3.22;;;22.00;99.60;;;;;;5032217;28;20030;-82
2023/06/05 11:26:55;;;;;;;8.82;3.65;;;21.90;99.80;;;;;;5031037;28;20060;-82
2023/06/05 11:29:25;;;;;;;3.92;3.45;;;21.90;99.30;;;;;;5032321;28;20041;-81
2023/06/05 11:31:51;;;;;;;5.65;3.03;;;21.90;99.10;;;;;;5026074;28;20103;-80
2023/06/05 11:34:17;;;;;;;3.63;2.60;;;21.70;98.90;;;;;;5022776;28;20116;-79
2023/06/05 11:36:44;;;;;;;4.75;2.90;;;21.80;99.90;;;;;;5019708;28;20175;-81
2023/06/05 11:39:11;;;;;;;5.60;4.05;;;21.80;99.70;;;;;;5028240;28;20052;-79
2023/06/05 11:41:43;;;;;;;3.72;3.42;;;21.50;98.50;;;;;;5029200;28;20041;-82
2023/06/05 11:44:09;;;;;;;5.75;3.90;;;21.50;99.90;;;;;;5028065;28;20045;-80
2023/06/05 11:46:39;;;;;;;5.80;3.50;;;21.40;99.90;;;;;;5026695;28;20065;-81
2023/06/05 11:49:04;;;;;;;3.42;3.13;;;21.20;99.70;;;;;;5026782;28;20799;-81
2023/06/05 11:51:35;;;;;;;5.85;3.05;;;21.10;99.90;;;;;;5027079;28;20132;-81
2023/06/05 11:54:01;;;;;;;7.35;3.83;;;21.30;99.90;;;;;;5029510;28;20412;-82
2023/06/05 11:56:27;;;;;;;4.15;3.80;;;21.60;99.90;;;;;;5031208;28;20042;-82
2023/06/05 11:58:54;;;;;;;3.10;2.65;;;21.50;99.90;;;;;;5030316;28;20045;-82
2023/06/05 12:01:25;;;;;;;5.57;3.22;;;21.70;99.90;;;;;;5026261;28;20037;-81
2023/06/05 12:04:11;;;;;;;3.03;2.75;;;21.90;99.90;;;;;;5030134;28;20045;-82
2023/06/05 12:06:41;;;;;;;3.50;2.80;;;22.00;99.90;;;;;;5022399;28;20041;-82
2023/06/05 12:09:11;;;;;;;3.17;2.58;;;22.10;99.90;;;;;;5020795;28;20044;-80
2023/06/05 12:11:37;;;;;;;3.60;2.67;;;22.10;99.90;;;;;;5021666;28;20581;-82
2023/06/05 12:14:03;;;;;;;4.60;3.95;;;22.10;99.90;;;;;;5028503;28;20037;-82
2023/06/05 12:16:47;;;;;;;4.85;3.70;;;22.20;99.90;;;;;;5024728;28;20046;-82
2023/06/05 12:19:14;;;;;;;4.78;4.10;;;22.10;99.90;;;;;;5020321;28;20041;-80
2023/06/05 12:21:39;;;;;;;5.90;4.25;;;21.80;99.60;;;;;;5023407;28;20072;-82
2023/06/05 12:24:06;;;;;;;6.68;3.47;;;21.60;99.70;;;;;;5030972;28;20122;-82
2023/06/05 12:26:54;;;;;;;4.72;3.10;;;21.60;99.60;;;;;;5028347;28;20046;-79
2023/06/05 12:29:22;;;;;;;3.63;2.85;;;21.50;99.90;;;;;;5027090;28;20116;-82
2023/06/05 12:31:48;;;;;;;6.47;2.90;;;21.80;99.90;;;;;;5029007;28;20057;-82
2023/06/05 12:34:15;;;;;;;3.30;2.97;;;22.00;99.90;;;;;;5024199;28;20042;-81
2023/06/05 12:36:42;;;;;;;4.03;2.90;;;22.20;99.90;;;;;;5028133;28;20088;-80
2023/06/05 12:39:15;;;;;;;3.67;2.60;;;22.80;99.90;;;;;;5026933;28;20045;-81
2023/06/05 12:41:42;;;;;;;3.53;3.22;;;22.40;99.80;;;;;;5023882;28;20076;-81
2023/06/05 12:44:08;;;;;;;6.53;2.95;;;22.30;99.20;;;;;;5025890;28;20392;-83
2023/06/05 12:46:35;;;;;;;5.45;3.17;;;22.00;99.60;;;;;;5023755;28;20037;-82
2023/06/05 12:49:02;;;;;;;5.30;2.90;;;22.00;99.90;;;;;;5022855;28;20041;-83
2023/06/05 12:51:28;;;;;;;5.47;3.20;;;22.10;99.90;;;;;;5024043;28;20056;-81
2023/06/05 12:53:55;;;;;;;3.70;2.72;;;22.00;99.90;;;;;;5021726;28;22081;-81
2023/06/05 12:56:24;;;;;;;4.22;2.28;;;22.10;99.90;;;;;;5027702;28;20100;-83
2023/06/05 12:58:57;;;;;;;7.95;2.85;;;22.10;99.90;;;;;;5027686;28;20041;-82